<?xml version="1.0" encoding="UTF-8" standalone="no" ?>
<gpx xmlns="http://www.topografix.com/GPX/1/1" creator="MapSource 6.11.6" version="1.1" xmlns:xsi="http://www.w3.org/2001/XMLSchema-instance" xsi:schemaLocation="http://www.topografix.com/GPX/1/1 http://www.topografix.com/GPX/1/1/gpx.xsd">

  <metadata>
    <link href="http://www.garmin.com">
      <text>Garmin International</text>
    </link>
    <time>2009-02-19T19:53:49Z</time>
    <bounds maxlat="50.657861" maxlon="6.484306" minlat="50.616562" minlon="6.413328"/>
  </metadata>

  <trk>
    <name>Schmidt-Mariawald RW</name>
    <extensions>
      <gpxx:TrackExtension xmlns:gpxx="http://www.garmin.com/xmlschemas/GpxExtensions/v3" xmlns:xsi="http://www.w3.org/2001/XMLSchema-instance" xsi:schemaLocation="http://www.garmin.com/xmlschemas/GpxExtensions/v3 http://www.garmin.com/xmlschemas/GpxExtensions/v3/GpxExtensionsv3.xsd">
        <gpxx:DisplayColor>White</gpxx:DisplayColor>
      </gpxx:TrackExtension>
    </extensions>
    <trkseg>
      <trkpt lat="50.656616" lon="6.413831">
        <ele>427.443000</ele>
        <time>2009-02-19T20:56:55Z</time>
      </trkpt>
      <trkpt lat="50.656445" lon="6.414484">
        <ele>423.598000</ele>
        <time>2009-02-19T20:57:34Z</time>
      </trkpt>
      <trkpt lat="50.656405" lon="6.414640">
        <ele>424.559000</ele>
        <time>2009-02-19T20:57:43Z</time>
      </trkpt>
      <trkpt lat="50.656566" lon="6.415404">
        <ele>424.079000</ele>
        <time>2009-02-19T20:58:27Z</time>
      </trkpt>
      <trkpt lat="50.656972" lon="6.415733">
        <ele>421.195000</ele>
        <time>2009-02-19T20:59:07Z</time>
      </trkpt>
      <trkpt lat="50.657403" lon="6.416115">
        <ele>417.830000</ele>
        <time>2009-02-19T20:59:50Z</time>
      </trkpt>
      <trkpt lat="50.657861" lon="6.416448">
        <ele>415.427000</ele>
        <time>2009-02-19T21:00:34Z</time>
      </trkpt>
      <trkpt lat="50.657604" lon="6.417365">
        <ele>413.985000</ele>
        <time>2009-02-19T21:01:30Z</time>
      </trkpt>
      <trkpt lat="50.657086" lon="6.420081">
        <ele>416.388000</ele>
        <time>2009-02-19T21:04:06Z</time>
      </trkpt>
      <trkpt lat="50.656964" lon="6.421127">
        <ele>413.504000</ele>
        <time>2009-02-19T21:05:05Z</time>
      </trkpt>
      <trkpt lat="50.656804" lon="6.422270">
        <ele>410.140000</ele>
        <time>2009-02-19T21:06:10Z</time>
      </trkpt>
      <trkpt lat="50.656684" lon="6.423224">
        <ele>405.814000</ele>
        <time>2009-02-19T21:07:04Z</time>
      </trkpt>
      <trkpt lat="50.656542" lon="6.426144">
        <ele>404.852000</ele>
        <time>2009-02-19T21:09:45Z</time>
      </trkpt>
      <trkpt lat="50.656751" lon="6.426903">
        <ele>403.891000</ele>
        <time>2009-02-19T21:10:31Z</time>
      </trkpt>
      <trkpt lat="50.657259" lon="6.429609">
        <ele>404.372000</ele>
        <time>2009-02-19T21:13:07Z</time>
      </trkpt>
      <trkpt lat="50.657249" lon="6.430139">
        <ele>402.449000</ele>
        <time>2009-02-19T21:13:36Z</time>
      </trkpt>
      <trkpt lat="50.657214" lon="6.431750">
        <ele>399.565000</ele>
        <time>2009-02-19T21:15:06Z</time>
      </trkpt>
      <trkpt lat="50.656347" lon="6.433626">
        <ele>395.239000</ele>
        <time>2009-02-19T21:17:14Z</time>
      </trkpt>
      <trkpt lat="50.655979" lon="6.436213">
        <ele>390.433000</ele>
        <time>2009-02-19T21:19:40Z</time>
      </trkpt>
      <trkpt lat="50.655984" lon="6.436373">
        <ele>391.875000</ele>
        <time>2009-02-19T21:19:49Z</time>
      </trkpt>
      <trkpt lat="50.655974" lon="6.438389">
        <ele>388.510000</ele>
        <time>2009-02-19T21:21:41Z</time>
      </trkpt>
      <trkpt lat="50.655902" lon="6.441096">
        <ele>387.068000</ele>
        <time>2009-02-19T21:24:10Z</time>
      </trkpt>
      <trkpt lat="50.655192" lon="6.442182">
        <ele>392.355000</ele>
        <time>2009-02-19T21:25:37Z</time>
      </trkpt>
      <trkpt lat="50.654977" lon="6.443000">
        <ele>394.759000</ele>
        <time>2009-02-19T21:26:26Z</time>
      </trkpt>
      <trkpt lat="50.655039" lon="6.443271">
        <ele>394.759000</ele>
        <time>2009-02-19T21:26:42Z</time>
      </trkpt>
      <trkpt lat="50.655434" lon="6.445012">
        <ele>390.433000</ele>
        <time>2009-02-19T21:28:24Z</time>
      </trkpt>
      <trkpt lat="50.655337" lon="6.445902">
        <ele>388.510000</ele>
        <time>2009-02-19T21:29:14Z</time>
      </trkpt>
      <trkpt lat="50.655287" lon="6.446071">
        <ele>388.510000</ele>
        <time>2009-02-19T21:29:24Z</time>
      </trkpt>
      <trkpt lat="50.654741" lon="6.446600">
        <ele>385.626000</ele>
        <time>2009-02-19T21:30:20Z</time>
      </trkpt>
      <trkpt lat="50.653363" lon="6.446760">
        <ele>383.703000</ele>
        <time>2009-02-19T21:32:20Z</time>
      </trkpt>
      <trkpt lat="50.652598" lon="6.447703">
        <ele>383.223000</ele>
        <time>2009-02-19T21:33:45Z</time>
      </trkpt>
      <trkpt lat="50.652317" lon="6.448048">
        <ele>386.587000</ele>
        <time>2009-02-19T21:34:16Z</time>
      </trkpt>
      <trkpt lat="50.651954" lon="6.448503">
        <ele>390.913000</ele>
        <time>2009-02-19T21:34:56Z</time>
      </trkpt>
      <trkpt lat="50.651175" lon="6.449916">
        <ele>396.201000</ele>
        <time>2009-02-19T21:36:40Z</time>
      </trkpt>
      <trkpt lat="50.650744" lon="6.450879">
        <ele>400.046000</ele>
        <time>2009-02-19T21:37:45Z</time>
      </trkpt>
      <trkpt lat="50.650338" lon="6.451873">
        <ele>393.797000</ele>
        <time>2009-02-19T21:38:50Z</time>
      </trkpt>
      <trkpt lat="50.650148" lon="6.452134">
        <ele>395.239000</ele>
        <time>2009-02-19T21:39:12Z</time>
      </trkpt>
      <trkpt lat="50.649957" lon="6.452381">
        <ele>391.875000</ele>
        <time>2009-02-19T21:39:34Z</time>
      </trkpt>
      <trkpt lat="50.649690" lon="6.452738">
        <ele>387.549000</ele>
        <time>2009-02-19T21:40:04Z</time>
      </trkpt>
      <trkpt lat="50.648268" lon="6.454361">
        <ele>384.665000</ele>
        <time>2009-02-19T21:42:38Z</time>
      </trkpt>
      <trkpt lat="50.647913" lon="6.454768">
        <ele>388.029000</ele>
        <time>2009-02-19T21:43:16Z</time>
      </trkpt>
      <trkpt lat="50.647829" lon="6.454862">
        <ele>388.029000</ele>
        <time>2009-02-19T21:43:25Z</time>
      </trkpt>
      <trkpt lat="50.646376" lon="6.456632">
        <ele>388.991000</ele>
        <time>2009-02-19T21:46:05Z</time>
      </trkpt>
      <trkpt lat="50.646062" lon="6.456266">
        <ele>383.223000</ele>
        <time>2009-02-19T21:46:39Z</time>
      </trkpt>
      <trkpt lat="50.645749" lon="6.456050">
        <ele>378.416000</ele>
        <time>2009-02-19T21:47:09Z</time>
      </trkpt>
      <trkpt lat="50.645427" lon="6.455912">
        <ele>372.167000</ele>
        <time>2009-02-19T21:47:38Z</time>
      </trkpt>
      <trkpt lat="50.645184" lon="6.455790">
        <ele>366.400000</ele>
        <time>2009-02-19T21:48:00Z</time>
      </trkpt>
      <trkpt lat="50.644940" lon="6.455841">
        <ele>362.074000</ele>
        <time>2009-02-19T21:48:21Z</time>
      </trkpt>
      <trkpt lat="50.644668" lon="6.455792">
        <ele>355.344000</ele>
        <time>2009-02-19T21:48:45Z</time>
      </trkpt>
      <trkpt lat="50.644440" lon="6.455699">
        <ele>351.499000</ele>
        <time>2009-02-19T21:49:06Z</time>
      </trkpt>
      <trkpt lat="50.643968" lon="6.455519">
        <ele>346.212000</ele>
        <time>2009-02-19T21:49:48Z</time>
      </trkpt>
      <trkpt lat="50.643644" lon="6.455507">
        <ele>342.367000</ele>
        <time>2009-02-19T21:50:16Z</time>
      </trkpt>
      <trkpt lat="50.643291" lon="6.455265">
        <ele>338.041000</ele>
        <time>2009-02-19T21:50:50Z</time>
      </trkpt>
      <trkpt lat="50.642972" lon="6.455184">
        <ele>334.676000</ele>
        <time>2009-02-19T21:51:18Z</time>
      </trkpt>
      <trkpt lat="50.642752" lon="6.455246">
        <ele>329.870000</ele>
        <time>2009-02-19T21:51:38Z</time>
      </trkpt>
      <trkpt lat="50.642614" lon="6.455499">
        <ele>323.140000</ele>
        <time>2009-02-19T21:51:56Z</time>
      </trkpt>
      <trkpt lat="50.642651" lon="6.455914">
        <ele>318.334000</ele>
        <time>2009-02-19T21:52:19Z</time>
      </trkpt>
      <trkpt lat="50.642672" lon="6.456111">
        <ele>314.969000</ele>
        <time>2009-02-19T21:52:30Z</time>
      </trkpt>
      <trkpt lat="50.642649" lon="6.456539">
        <ele>311.124000</ele>
        <time>2009-02-19T21:52:54Z</time>
      </trkpt>
      <trkpt lat="50.642478" lon="6.456815">
        <ele>306.798000</ele>
        <time>2009-02-19T21:53:15Z</time>
      </trkpt>
      <trkpt lat="50.642252" lon="6.457347">
        <ele>302.953000</ele>
        <time>2009-02-19T21:53:51Z</time>
      </trkpt>
      <trkpt lat="50.641971" lon="6.458091">
        <ele>297.185000</ele>
        <time>2009-02-19T21:54:39Z</time>
      </trkpt>
      <trkpt lat="50.641875" lon="6.458041">
        <ele>293.339000</ele>
        <time>2009-02-19T21:54:47Z</time>
      </trkpt>
      <trkpt lat="50.641667" lon="6.458228">
        <ele>285.649000</ele>
        <time>2009-02-19T21:55:08Z</time>
      </trkpt>
      <trkpt lat="50.641582" lon="6.458372">
        <ele>282.284000</ele>
        <time>2009-02-19T21:55:19Z</time>
      </trkpt>
      <trkpt lat="50.641507" lon="6.459025">
        <ele>283.246000</ele>
        <time>2009-02-19T21:55:56Z</time>
      </trkpt>
      <trkpt lat="50.641015" lon="6.460028">
        <ele>278.920000</ele>
        <time>2009-02-19T21:57:06Z</time>
      </trkpt>
      <trkpt lat="50.640753" lon="6.460346">
        <ele>276.997000</ele>
        <time>2009-02-19T21:57:35Z</time>
      </trkpt>
      <trkpt lat="50.640582" lon="6.460575">
        <ele>276.997000</ele>
        <time>2009-02-19T21:57:54Z</time>
      </trkpt>
      <trkpt lat="50.639940" lon="6.461440">
        <ele>271.710000</ele>
        <time>2009-02-19T21:59:08Z</time>
      </trkpt>
      <trkpt lat="50.639469" lon="6.462347">
        <ele>266.422000</ele>
        <time>2009-02-19T22:00:13Z</time>
      </trkpt>
      <trkpt lat="50.639263" lon="6.462481">
        <ele>261.135000</ele>
        <time>2009-02-19T22:00:32Z</time>
      </trkpt>
      <trkpt lat="50.638946" lon="6.462652">
        <ele>257.290000</ele>
        <time>2009-02-19T22:01:01Z</time>
      </trkpt>
      <trkpt lat="50.638745" lon="6.462775">
        <ele>253.925000</ele>
        <time>2009-02-19T22:01:20Z</time>
      </trkpt>
      <trkpt lat="50.638626" lon="6.462840">
        <ele>252.483000</ele>
        <time>2009-02-19T22:01:31Z</time>
      </trkpt>
      <trkpt lat="50.638376" lon="6.462888">
        <ele>249.119000</ele>
        <time>2009-02-19T22:01:53Z</time>
      </trkpt>
      <trkpt lat="50.638144" lon="6.462952">
        <ele>245.273000</ele>
        <time>2009-02-19T22:02:14Z</time>
      </trkpt>
      <trkpt lat="50.637790" lon="6.463034">
        <ele>239.986000</ele>
        <time>2009-02-19T22:02:45Z</time>
      </trkpt>
      <trkpt lat="50.637471" lon="6.463125">
        <ele>236.141000</ele>
        <time>2009-02-19T22:03:13Z</time>
      </trkpt>
      <trkpt lat="50.637368" lon="6.463121">
        <ele>233.738000</ele>
        <time>2009-02-19T22:03:22Z</time>
      </trkpt>
      <trkpt lat="50.637261" lon="6.463051">
        <ele>230.373000</ele>
        <time>2009-02-19T22:03:32Z</time>
      </trkpt>
      <trkpt lat="50.637154" lon="6.462986">
        <ele>229.412000</ele>
        <time>2009-02-19T22:03:42Z</time>
      </trkpt>
      <trkpt lat="50.637011" lon="6.463140">
        <ele>226.047000</ele>
        <time>2009-02-19T22:03:57Z</time>
      </trkpt>
      <trkpt lat="50.636987" lon="6.463408">
        <ele>226.047000</ele>
        <time>2009-02-19T22:04:12Z</time>
      </trkpt>
      <trkpt lat="50.636972" lon="6.463659">
        <ele>227.009000</ele>
        <time>2009-02-19T22:04:26Z</time>
      </trkpt>
      <trkpt lat="50.637159" lon="6.464040">
        <ele>221.721000</ele>
        <time>2009-02-19T22:04:53Z</time>
      </trkpt>
      <trkpt lat="50.637232" lon="6.464200">
        <ele>217.876000</ele>
        <time>2009-02-19T22:05:04Z</time>
      </trkpt>
      <trkpt lat="50.637306" lon="6.464385">
        <ele>214.031000</ele>
        <time>2009-02-19T22:05:16Z</time>
      </trkpt>
      <trkpt lat="50.637492" lon="6.464903">
        <ele>209.224000</ele>
        <time>2009-02-19T22:05:49Z</time>
      </trkpt>
      <trkpt lat="50.637557" lon="6.465263">
        <ele>204.417000</ele>
        <time>2009-02-19T22:06:09Z</time>
      </trkpt>
      <trkpt lat="50.637802" lon="6.465373">
        <ele>201.053000</ele>
        <time>2009-02-19T22:06:32Z</time>
      </trkpt>
      <trkpt lat="50.637908" lon="6.465429">
        <ele>201.053000</ele>
        <time>2009-02-19T22:06:41Z</time>
      </trkpt>
      <trkpt lat="50.638027" lon="6.466559">
        <ele>199.611000</ele>
        <time>2009-02-19T22:07:45Z</time>
      </trkpt>
      <trkpt lat="50.638012" lon="6.468933">
        <ele>202.975000</ele>
        <time>2009-02-19T22:09:56Z</time>
      </trkpt>
      <trkpt lat="50.637545" lon="6.470922">
        <ele>202.975000</ele>
        <time>2009-02-19T22:11:53Z</time>
      </trkpt>
      <trkpt lat="50.637456" lon="6.471407">
        <ele>199.130000</ele>
        <time>2009-02-19T22:12:21Z</time>
      </trkpt>
      <trkpt lat="50.637380" lon="6.471554">
        <ele>199.130000</ele>
        <time>2009-02-19T22:12:32Z</time>
      </trkpt>
      <trkpt lat="50.636391" lon="6.472366">
        <ele>204.898000</ele>
        <time>2009-02-19T22:14:09Z</time>
      </trkpt>
      <trkpt lat="50.636026" lon="6.472444">
        <ele>208.263000</ele>
        <time>2009-02-19T22:14:41Z</time>
      </trkpt>
      <trkpt lat="50.635937" lon="6.472380">
        <ele>208.263000</ele>
        <time>2009-02-19T22:14:50Z</time>
      </trkpt>
      <trkpt lat="50.635692" lon="6.472597">
        <ele>203.937000</ele>
        <time>2009-02-19T22:15:14Z</time>
      </trkpt>
      <trkpt lat="50.635553" lon="6.472978">
        <ele>202.975000</ele>
        <time>2009-02-19T22:15:38Z</time>
      </trkpt>
      <trkpt lat="50.635193" lon="6.473968">
        <ele>200.572000</ele>
        <time>2009-02-19T22:16:41Z</time>
      </trkpt>
      <trkpt lat="50.634656" lon="6.474320">
        <ele>200.572000</ele>
        <time>2009-02-19T22:17:32Z</time>
      </trkpt>
      <trkpt lat="50.633668" lon="6.475267">
        <ele>197.688000</ele>
        <time>2009-02-19T22:19:13Z</time>
      </trkpt>
      <trkpt lat="50.633629" lon="6.475434">
        <ele>198.169000</ele>
        <time>2009-02-19T22:19:23Z</time>
      </trkpt>
      <trkpt lat="50.633562" lon="6.475782">
        <ele>201.534000</ele>
        <time>2009-02-19T22:19:43Z</time>
      </trkpt>
      <trkpt lat="50.633471" lon="6.476156">
        <ele>201.534000</ele>
        <time>2009-02-19T22:20:05Z</time>
      </trkpt>
      <trkpt lat="50.632423" lon="6.480574">
        <ele>204.898000</ele>
        <time>2009-02-19T22:24:26Z</time>
      </trkpt>
      <trkpt lat="50.631288" lon="6.480977">
        <ele>205.379000</ele>
        <time>2009-02-19T22:26:07Z</time>
      </trkpt>
      <trkpt lat="50.629788" lon="6.480777">
        <ele>208.743000</ele>
        <time>2009-02-19T22:28:19Z</time>
      </trkpt>
      <trkpt lat="50.629210" lon="6.480462">
        <ele>212.108000</ele>
        <time>2009-02-19T22:29:12Z</time>
      </trkpt>
      <trkpt lat="50.628603" lon="6.480233">
        <ele>216.434000</ele>
        <time>2009-02-19T22:30:06Z</time>
      </trkpt>
      <trkpt lat="50.628707" lon="6.480256">
        <ele>218.837000</ele>
        <time>2009-02-19T22:30:15Z</time>
      </trkpt>
      <trkpt lat="50.629246" lon="6.480699">
        <ele>223.163000</ele>
        <time>2009-02-19T22:31:08Z</time>
      </trkpt>
      <trkpt lat="50.629096" lon="6.480666">
        <ele>227.009000</ele>
        <time>2009-02-19T22:31:22Z</time>
      </trkpt>
      <trkpt lat="50.628642" lon="6.480600">
        <ele>230.373000</ele>
        <time>2009-02-19T22:32:01Z</time>
      </trkpt>
      <trkpt lat="50.628340" lon="6.480911">
        <ele>233.738000</ele>
        <time>2009-02-19T22:32:33Z</time>
      </trkpt>
      <trkpt lat="50.627723" lon="6.481376">
        <ele>239.505000</ele>
        <time>2009-02-19T22:33:32Z</time>
      </trkpt>
      <trkpt lat="50.627684" lon="6.481491">
        <ele>242.870000</ele>
        <time>2009-02-19T22:33:40Z</time>
      </trkpt>
      <trkpt lat="50.627595" lon="6.481541">
        <ele>245.754000</ele>
        <time>2009-02-19T22:33:48Z</time>
      </trkpt>
      <trkpt lat="50.627219" lon="6.482564">
        <ele>256.809000</ele>
        <time>2009-02-19T22:34:53Z</time>
      </trkpt>
      <trkpt lat="50.627105" lon="6.482766">
        <ele>261.135000</ele>
        <time>2009-02-19T22:35:08Z</time>
      </trkpt>
      <trkpt lat="50.627000" lon="6.483737">
        <ele>272.671000</ele>
        <time>2009-02-19T22:36:03Z</time>
      </trkpt>
      <trkpt lat="50.626478" lon="6.484306">
        <ele>286.610000</ele>
        <time>2009-02-19T22:36:58Z</time>
      </trkpt>
      <trkpt lat="50.625383" lon="6.483471">
        <ele>304.395000</ele>
        <time>2009-02-19T22:38:44Z</time>
      </trkpt>
      <trkpt lat="50.624474" lon="6.482816">
        <ele>315.930000</ele>
        <time>2009-02-19T22:40:11Z</time>
      </trkpt>
      <trkpt lat="50.622482" lon="6.481625">
        <ele>347.173000</ele>
        <time>2009-02-19T22:43:17Z</time>
      </trkpt>
      <trkpt lat="50.621940" lon="6.480841">
        <ele>355.825000</ele>
        <time>2009-02-19T22:44:21Z</time>
      </trkpt>
      <trkpt lat="50.621782" lon="6.480598">
        <ele>359.190000</ele>
        <time>2009-02-19T22:44:40Z</time>
      </trkpt>
      <trkpt lat="50.621579" lon="6.480417">
        <ele>363.035000</ele>
        <time>2009-02-19T22:45:01Z</time>
      </trkpt>
      <trkpt lat="50.621244" lon="6.480138">
        <ele>367.842000</ele>
        <time>2009-02-19T22:45:34Z</time>
      </trkpt>
      <trkpt lat="50.621044" lon="6.479998">
        <ele>373.609000</ele>
        <time>2009-02-19T22:45:53Z</time>
      </trkpt>
      <trkpt lat="50.620871" lon="6.479855">
        <ele>378.416000</ele>
        <time>2009-02-19T22:46:10Z</time>
      </trkpt>
      <trkpt lat="50.620687" lon="6.479712">
        <ele>383.703000</ele>
        <time>2009-02-19T22:46:28Z</time>
      </trkpt>
      <trkpt lat="50.620464" lon="6.479580">
        <ele>387.549000</ele>
        <time>2009-02-19T22:46:48Z</time>
      </trkpt>
      <trkpt lat="50.620300" lon="6.479410">
        <ele>392.836000</ele>
        <time>2009-02-19T22:47:06Z</time>
      </trkpt>
      <trkpt lat="50.620170" lon="6.479167">
        <ele>396.201000</ele>
        <time>2009-02-19T22:47:23Z</time>
      </trkpt>
      <trkpt lat="50.620012" lon="6.479006">
        <ele>400.046000</ele>
        <time>2009-02-19T22:47:40Z</time>
      </trkpt>
      <trkpt lat="50.619727" lon="6.478762">
        <ele>403.410000</ele>
        <time>2009-02-19T22:48:08Z</time>
      </trkpt>
      <trkpt lat="50.619519" lon="6.478641">
        <ele>406.775000</ele>
        <time>2009-02-19T22:48:27Z</time>
      </trkpt>
      <trkpt lat="50.619197" lon="6.478629">
        <ele>411.101000</ele>
        <time>2009-02-19T22:48:55Z</time>
      </trkpt>
      <trkpt lat="50.618437" lon="6.479079">
        <ele>414.465000</ele>
        <time>2009-02-19T22:50:06Z</time>
      </trkpt>
      <trkpt lat="50.617768" lon="6.478494">
        <ele>418.792000</ele>
        <time>2009-02-19T22:51:13Z</time>
      </trkpt>
      <trkpt lat="50.617456" lon="6.477777">
        <ele>426.482000</ele>
        <time>2009-02-19T22:52:01Z</time>
      </trkpt>
      <trkpt lat="50.617813" lon="6.476862">
        <ele>431.289000</ele>
        <time>2009-02-19T22:53:00Z</time>
      </trkpt>
      <trkpt lat="50.618257" lon="6.475592">
        <ele>438.499000</ele>
        <time>2009-02-19T22:54:20Z</time>
      </trkpt>
      <trkpt lat="50.618252" lon="6.475428">
        <ele>441.863000</ele>
        <time>2009-02-19T22:54:30Z</time>
      </trkpt>
      <trkpt lat="50.617887" lon="6.475155">
        <ele>446.670000</ele>
        <time>2009-02-19T22:55:05Z</time>
      </trkpt>
      <trkpt lat="50.617899" lon="6.475154">
        <ele>454.841000</ele>
        <time>2009-02-19T22:55:06Z</time>
      </trkpt>
      <trkpt lat="50.618049" lon="6.474953">
        <ele>451.957000</ele>
        <time>2009-02-19T22:55:23Z</time>
      </trkpt>
      <trkpt lat="50.618051" lon="6.474567">
        <ele>447.150000</ele>
        <time>2009-02-19T22:55:44Z</time>
      </trkpt>
      <trkpt lat="50.618121" lon="6.474418">
        <ele>444.266000</ele>
        <time>2009-02-19T22:55:55Z</time>
      </trkpt>
      <trkpt lat="50.618283" lon="6.474059">
        <ele>441.863000</ele>
        <time>2009-02-19T22:56:19Z</time>
      </trkpt>
      <trkpt lat="50.618539" lon="6.473934">
        <ele>437.057000</ele>
        <time>2009-02-19T22:56:42Z</time>
      </trkpt>
      <trkpt lat="50.618676" lon="6.473831">
        <ele>438.018000</ele>
        <time>2009-02-19T22:56:56Z</time>
      </trkpt>
      <trkpt lat="50.618716" lon="6.473456">
        <ele>435.134000</ele>
        <time>2009-02-19T22:57:17Z</time>
      </trkpt>
      <trkpt lat="50.618611" lon="6.473395">
        <ele>431.769000</ele>
        <time>2009-02-19T22:57:26Z</time>
      </trkpt>
      <trkpt lat="50.618431" lon="6.473300">
        <ele>427.924000</ele>
        <time>2009-02-19T22:57:43Z</time>
      </trkpt>
      <trkpt lat="50.618083" lon="6.473089">
        <ele>423.598000</ele>
        <time>2009-02-19T22:58:15Z</time>
      </trkpt>
      <trkpt lat="50.617636" lon="6.472998">
        <ele>419.753000</ele>
        <time>2009-02-19T22:58:55Z</time>
      </trkpt>
      <trkpt lat="50.617342" lon="6.472961">
        <ele>416.388000</ele>
        <time>2009-02-19T22:59:20Z</time>
      </trkpt>
      <trkpt lat="50.617071" lon="6.472946">
        <ele>411.101000</ele>
        <time>2009-02-19T22:59:44Z</time>
      </trkpt>
      <trkpt lat="50.616809" lon="6.472955">
        <ele>407.736000</ele>
        <time>2009-02-19T23:00:07Z</time>
      </trkpt>
      <trkpt lat="50.616562" lon="6.472670">
        <ele>396.681000</ele>
        <time>2009-02-19T23:00:34Z</time>
      </trkpt>
      <trkpt lat="50.618264" lon="6.470359">
        <ele>364.958000</ele>
        <time>2009-02-19T23:03:49Z</time>
      </trkpt>
      <trkpt lat="50.618435" lon="6.470152">
        <ele>361.593000</ele>
        <time>2009-02-19T23:04:08Z</time>
      </trkpt>
      <trkpt lat="50.620369" lon="6.468820">
        <ele>325.544000</ele>
        <time>2009-02-19T23:07:12Z</time>
      </trkpt>
      <trkpt lat="50.621158" lon="6.467099">
        <ele>314.008000</ele>
        <time>2009-02-19T23:09:10Z</time>
      </trkpt>
      <trkpt lat="50.621224" lon="6.466995">
        <ele>312.085000</ele>
        <time>2009-02-19T23:09:18Z</time>
      </trkpt>
      <trkpt lat="50.621746" lon="6.466730">
        <ele>302.953000</ele>
        <time>2009-02-19T23:10:06Z</time>
      </trkpt>
      <trkpt lat="50.621971" lon="6.466617">
        <ele>299.588000</ele>
        <time>2009-02-19T23:10:26Z</time>
      </trkpt>
      <trkpt lat="50.622292" lon="6.466511">
        <ele>295.262000</ele>
        <time>2009-02-19T23:10:55Z</time>
      </trkpt>
      <trkpt lat="50.622599" lon="6.466453">
        <ele>290.936000</ele>
        <time>2009-02-19T23:11:22Z</time>
      </trkpt>
      <trkpt lat="50.622812" lon="6.466414">
        <ele>287.571000</ele>
        <time>2009-02-19T23:11:40Z</time>
      </trkpt>
      <trkpt lat="50.622999" lon="6.466441">
        <ele>284.207000</ele>
        <time>2009-02-19T23:11:57Z</time>
      </trkpt>
      <trkpt lat="50.623377" lon="6.466502">
        <ele>279.881000</ele>
        <time>2009-02-19T23:12:30Z</time>
      </trkpt>
      <trkpt lat="50.623615" lon="6.466542">
        <ele>276.036000</ele>
        <time>2009-02-19T23:12:51Z</time>
      </trkpt>
      <trkpt lat="50.623964" lon="6.466358">
        <ele>276.516000</ele>
        <time>2009-02-19T23:13:23Z</time>
      </trkpt>
      <trkpt lat="50.624333" lon="6.466238">
        <ele>279.881000</ele>
        <time>2009-02-19T23:13:56Z</time>
      </trkpt>
      <trkpt lat="50.624762" lon="6.466193">
        <ele>283.246000</ele>
        <time>2009-02-19T23:14:33Z</time>
      </trkpt>
      <trkpt lat="50.625313" lon="6.466368">
        <ele>286.610000</ele>
        <time>2009-02-19T23:15:22Z</time>
      </trkpt>
      <trkpt lat="50.625971" lon="6.465622">
        <ele>288.052000</ele>
        <time>2009-02-19T23:16:33Z</time>
      </trkpt>
      <trkpt lat="50.625428" lon="6.464259">
        <ele>287.091000</ele>
        <time>2009-02-19T23:18:02Z</time>
      </trkpt>
      <trkpt lat="50.625233" lon="6.462739">
        <ele>289.975000</ele>
        <time>2009-02-19T23:19:28Z</time>
      </trkpt>
      <trkpt lat="50.624441" lon="6.461263">
        <ele>295.262000</ele>
        <time>2009-02-19T23:21:15Z</time>
      </trkpt>
      <trkpt lat="50.624418" lon="6.460330">
        <ele>297.665000</ele>
        <time>2009-02-19T23:22:06Z</time>
      </trkpt>
      <trkpt lat="50.623965" lon="6.459470">
        <ele>298.627000</ele>
        <time>2009-02-19T23:23:08Z</time>
      </trkpt>
      <trkpt lat="50.623644" lon="6.458313">
        <ele>304.875000</ele>
        <time>2009-02-19T23:24:18Z</time>
      </trkpt>
      <trkpt lat="50.623393" lon="6.457654">
        <ele>307.279000</ele>
        <time>2009-02-19T23:25:00Z</time>
      </trkpt>
      <trkpt lat="50.623738" lon="6.457344">
        <ele>309.201000</ele>
        <time>2009-02-19T23:25:35Z</time>
      </trkpt>
      <trkpt lat="50.624324" lon="6.457991">
        <ele>310.643000</ele>
        <time>2009-02-19T23:26:37Z</time>
      </trkpt>
      <trkpt lat="50.624970" lon="6.458762">
        <ele>314.488000</ele>
        <time>2009-02-19T23:27:48Z</time>
      </trkpt>
      <trkpt lat="50.625362" lon="6.459402">
        <ele>317.853000</ele>
        <time>2009-02-19T23:28:37Z</time>
      </trkpt>
      <trkpt lat="50.625735" lon="6.460058">
        <ele>321.218000</ele>
        <time>2009-02-19T23:29:26Z</time>
      </trkpt>
      <trkpt lat="50.626812" lon="6.459589">
        <ele>325.063000</ele>
        <time>2009-02-19T23:31:03Z</time>
      </trkpt>
      <trkpt lat="50.626877" lon="6.458923">
        <ele>328.428000</ele>
        <time>2009-02-19T23:31:41Z</time>
      </trkpt>
      <trkpt lat="50.626905" lon="6.458791">
        <ele>328.428000</ele>
        <time>2009-02-19T23:31:48Z</time>
      </trkpt>
      <trkpt lat="50.626984" lon="6.456670">
        <ele>334.195000</ele>
        <time>2009-02-19T23:33:46Z</time>
      </trkpt>
      <trkpt lat="50.626600" lon="6.454134">
        <ele>335.637000</ele>
        <time>2009-02-19T23:36:10Z</time>
      </trkpt>
      <trkpt lat="50.626727" lon="6.452800">
        <ele>333.234000</ele>
        <time>2009-02-19T23:37:25Z</time>
      </trkpt>
      <trkpt lat="50.627211" lon="6.450530">
        <ele>336.118000</ele>
        <time>2009-02-19T23:39:37Z</time>
      </trkpt>
      <trkpt lat="50.627415" lon="6.450059">
        <ele>335.157000</ele>
        <time>2009-02-19T23:40:09Z</time>
      </trkpt>
      <trkpt lat="50.627490" lon="6.449892">
        <ele>334.676000</ele>
        <time>2009-02-19T23:40:20Z</time>
      </trkpt>
      <trkpt lat="50.628197" lon="6.448814">
        <ele>333.234000</ele>
        <time>2009-02-19T23:41:46Z</time>
      </trkpt>
      <trkpt lat="50.628553" lon="6.447518">
        <ele>331.312000</ele>
        <time>2009-02-19T23:43:04Z</time>
      </trkpt>
      <trkpt lat="50.628926" lon="6.446134">
        <ele>331.312000</ele>
        <time>2009-02-19T23:44:27Z</time>
      </trkpt>
      <trkpt lat="50.629825" lon="6.443901">
        <ele>327.466000</ele>
        <time>2009-02-19T23:46:53Z</time>
      </trkpt>
      <trkpt lat="50.630021" lon="6.443721">
        <ele>324.102000</ele>
        <time>2009-02-19T23:47:13Z</time>
      </trkpt>
      <trkpt lat="50.630551" lon="6.444091">
        <ele>318.814000</ele>
        <time>2009-02-19T23:48:04Z</time>
      </trkpt>
      <trkpt lat="50.630992" lon="6.444081">
        <ele>314.488000</ele>
        <time>2009-02-19T23:48:42Z</time>
      </trkpt>
      <trkpt lat="50.631476" lon="6.443980">
        <ele>311.124000</ele>
        <time>2009-02-19T23:49:25Z</time>
      </trkpt>
      <trkpt lat="50.631781" lon="6.444172">
        <ele>306.798000</ele>
        <time>2009-02-19T23:49:53Z</time>
      </trkpt>
      <trkpt lat="50.631886" lon="6.444250">
        <ele>305.837000</ele>
        <time>2009-02-19T23:50:03Z</time>
      </trkpt>
      <trkpt lat="50.632266" lon="6.444512">
        <ele>303.914000</ele>
        <time>2009-02-19T23:50:39Z</time>
      </trkpt>
      <trkpt lat="50.632563" lon="6.444127">
        <ele>302.472000</ele>
        <time>2009-02-19T23:51:13Z</time>
      </trkpt>
      <trkpt lat="50.632979" lon="6.444324">
        <ele>298.627000</ele>
        <time>2009-02-19T23:51:51Z</time>
      </trkpt>
      <trkpt lat="50.633800" lon="6.443780">
        <ele>293.820000</ele>
        <time>2009-02-19T23:53:08Z</time>
      </trkpt>
      <trkpt lat="50.634285" lon="6.442976">
        <ele>289.975000</ele>
        <time>2009-02-19T23:54:10Z</time>
      </trkpt>
      <trkpt lat="50.634925" lon="6.442472">
        <ele>286.130000</ele>
        <time>2009-02-19T23:55:12Z</time>
      </trkpt>
      <trkpt lat="50.636016" lon="6.441998">
        <ele>286.610000</ele>
        <time>2009-02-19T23:56:51Z</time>
      </trkpt>
      <trkpt lat="50.639064" lon="6.441241">
        <ele>287.091000</ele>
        <time>2009-02-20T00:01:20Z</time>
      </trkpt>
      <trkpt lat="50.639384" lon="6.440905">
        <ele>286.130000</ele>
        <time>2009-02-20T00:01:53Z</time>
      </trkpt>
      <trkpt lat="50.639886" lon="6.441086">
        <ele>286.130000</ele>
        <time>2009-02-20T00:02:38Z</time>
      </trkpt>
      <trkpt lat="50.641442" lon="6.442016">
        <ele>284.207000</ele>
        <time>2009-02-20T00:05:03Z</time>
      </trkpt>
      <trkpt lat="50.642430" lon="6.442415">
        <ele>282.765000</ele>
        <time>2009-02-20T00:06:32Z</time>
      </trkpt>
      <trkpt lat="50.642859" lon="6.442032">
        <ele>282.765000</ele>
        <time>2009-02-20T00:07:15Z</time>
      </trkpt>
      <trkpt lat="50.643055" lon="6.441826">
        <ele>283.246000</ele>
        <time>2009-02-20T00:07:36Z</time>
      </trkpt>
      <trkpt lat="50.644753" lon="6.440263">
        <ele>282.284000</ele>
        <time>2009-02-20T00:10:27Z</time>
      </trkpt>
      <trkpt lat="50.646039" lon="6.437247">
        <ele>282.765000</ele>
        <time>2009-02-20T00:13:48Z</time>
      </trkpt>
      <trkpt lat="50.646855" lon="6.437607">
        <ele>281.804000</ele>
        <time>2009-02-20T00:15:02Z</time>
      </trkpt>
      <trkpt lat="50.647324" lon="6.438199">
        <ele>282.284000</ele>
        <time>2009-02-20T00:15:54Z</time>
      </trkpt>
      <trkpt lat="50.647741" lon="6.438339">
        <ele>279.881000</ele>
        <time>2009-02-20T00:16:32Z</time>
      </trkpt>
      <trkpt lat="50.647316" lon="6.433102">
        <ele>278.920000</ele>
        <time>2009-02-20T00:21:23Z</time>
      </trkpt>
      <trkpt lat="50.647646" lon="6.431483">
        <ele>280.842000</ele>
        <time>2009-02-20T00:22:57Z</time>
      </trkpt>
      <trkpt lat="50.647824" lon="6.431340">
        <ele>280.842000</ele>
        <time>2009-02-20T00:23:15Z</time>
      </trkpt>
      <trkpt lat="50.648806" lon="6.431163">
        <ele>280.842000</ele>
        <time>2009-02-20T00:24:41Z</time>
      </trkpt>
      <trkpt lat="50.649356" lon="6.431748">
        <ele>279.400000</ele>
        <time>2009-02-20T00:25:39Z</time>
      </trkpt>
      <trkpt lat="50.649498" lon="6.431530">
        <ele>275.555000</ele>
        <time>2009-02-20T00:25:56Z</time>
      </trkpt>
      <trkpt lat="50.649767" lon="6.431172">
        <ele>276.997000</ele>
        <time>2009-02-20T00:26:27Z</time>
      </trkpt>
      <trkpt lat="50.650007" lon="6.430710">
        <ele>278.439000</ele>
        <time>2009-02-20T00:27:00Z</time>
      </trkpt>
      <trkpt lat="50.651069" lon="6.429819">
        <ele>278.920000</ele>
        <time>2009-02-20T00:28:45Z</time>
      </trkpt>
      <trkpt lat="50.650966" lon="6.429185">
        <ele>276.997000</ele>
        <time>2009-02-20T00:29:21Z</time>
      </trkpt>
      <trkpt lat="50.650375" lon="6.428917">
        <ele>277.958000</ele>
        <time>2009-02-20T00:30:14Z</time>
      </trkpt>
      <trkpt lat="50.649878" lon="6.428860">
        <ele>279.400000</ele>
        <time>2009-02-20T00:30:58Z</time>
      </trkpt>
      <trkpt lat="50.649043" lon="6.428704">
        <ele>276.516000</ele>
        <time>2009-02-20T00:32:11Z</time>
      </trkpt>
      <trkpt lat="50.648807" lon="6.428062">
        <ele>277.478000</ele>
        <time>2009-02-20T00:32:52Z</time>
      </trkpt>
      <trkpt lat="50.649271" lon="6.427078">
        <ele>277.958000</ele>
        <time>2009-02-20T00:34:00Z</time>
      </trkpt>
      <trkpt lat="50.650758" lon="6.423793">
        <ele>277.958000</ele>
        <time>2009-02-20T00:37:43Z</time>
      </trkpt>
      <trkpt lat="50.651017" lon="6.422253">
        <ele>278.439000</ele>
        <time>2009-02-20T00:39:11Z</time>
      </trkpt>
      <trkpt lat="50.650966" lon="6.420629">
        <ele>276.997000</ele>
        <time>2009-02-20T00:40:41Z</time>
      </trkpt>
      <trkpt lat="50.651373" lon="6.418127">
        <ele>277.958000</ele>
        <time>2009-02-20T00:43:04Z</time>
      </trkpt>
      <trkpt lat="50.649834" lon="6.418013">
        <ele>276.997000</ele>
        <time>2009-02-20T00:45:18Z</time>
      </trkpt>
      <trkpt lat="50.649193" lon="6.416997">
        <ele>282.765000</ele>
        <time>2009-02-20T00:46:37Z</time>
      </trkpt>
      <trkpt lat="50.649111" lon="6.416918">
        <ele>283.246000</ele>
        <time>2009-02-20T00:46:46Z</time>
      </trkpt>
      <trkpt lat="50.648617" lon="6.415991">
        <ele>284.688000</ele>
        <time>2009-02-20T00:47:53Z</time>
      </trkpt>
      <trkpt lat="50.648470" lon="6.415734">
        <ele>286.610000</ele>
        <time>2009-02-20T00:48:12Z</time>
      </trkpt>
      <trkpt lat="50.648248" lon="6.415495">
        <ele>288.052000</ele>
        <time>2009-02-20T00:48:35Z</time>
      </trkpt>
      <trkpt lat="50.647873" lon="6.415072">
        <ele>288.052000</ele>
        <time>2009-02-20T00:49:15Z</time>
      </trkpt>
      <trkpt lat="50.647625" lon="6.414705">
        <ele>291.897000</ele>
        <time>2009-02-20T00:49:45Z</time>
      </trkpt>
      <trkpt lat="50.647695" lon="6.414775">
        <ele>295.262000</ele>
        <time>2009-02-20T00:49:52Z</time>
      </trkpt>
      <trkpt lat="50.648178" lon="6.415216">
        <ele>296.704000</ele>
        <time>2009-02-20T00:50:41Z</time>
      </trkpt>
      <trkpt lat="50.648749" lon="6.415874">
        <ele>299.588000</ele>
        <time>2009-02-20T00:51:43Z</time>
      </trkpt>
      <trkpt lat="50.649248" lon="6.416480">
        <ele>302.953000</ele>
        <time>2009-02-20T00:52:38Z</time>
      </trkpt>
      <trkpt lat="50.649775" lon="6.417428">
        <ele>307.279000</ele>
        <time>2009-02-20T00:53:47Z</time>
      </trkpt>
      <trkpt lat="50.651273" lon="6.417690">
        <ele>313.047000</ele>
        <time>2009-02-20T00:55:59Z</time>
      </trkpt>
      <trkpt lat="50.651665" lon="6.418036">
        <ele>310.162000</ele>
        <time>2009-02-20T00:56:38Z</time>
      </trkpt>
      <trkpt lat="50.651876" lon="6.418220">
        <ele>313.527000</ele>
        <time>2009-02-20T00:56:59Z</time>
      </trkpt>
      <trkpt lat="50.651940" lon="6.418298">
        <ele>319.295000</ele>
        <time>2009-02-20T00:57:06Z</time>
      </trkpt>
      <trkpt lat="50.652461" lon="6.417676">
        <ele>336.118000</ele>
        <time>2009-02-20T00:58:03Z</time>
      </trkpt>
      <trkpt lat="50.652612" lon="6.417824">
        <ele>346.212000</ele>
        <time>2009-02-20T00:58:18Z</time>
      </trkpt>
      <trkpt lat="50.652715" lon="6.417846">
        <ele>351.018000</ele>
        <time>2009-02-20T00:58:27Z</time>
      </trkpt>
      <trkpt lat="50.652733" lon="6.418049">
        <ele>357.267000</ele>
        <time>2009-02-20T00:58:39Z</time>
      </trkpt>
      <trkpt lat="50.652686" lon="6.418300">
        <ele>357.267000</ele>
        <time>2009-02-20T00:58:53Z</time>
      </trkpt>
      <trkpt lat="50.652614" lon="6.418696">
        <ele>359.670000</ele>
        <time>2009-02-20T00:59:16Z</time>
      </trkpt>
      <trkpt lat="50.652432" lon="6.419462">
        <ele>363.035000</ele>
        <time>2009-02-20T01:00:01Z</time>
      </trkpt>
      <trkpt lat="50.652297" lon="6.420232">
        <ele>366.400000</ele>
        <time>2009-02-20T01:00:45Z</time>
      </trkpt>
      <trkpt lat="50.652079" lon="6.421173">
        <ele>370.726000</ele>
        <time>2009-02-20T01:01:41Z</time>
      </trkpt>
      <trkpt lat="50.652075" lon="6.422497">
        <ele>371.687000</ele>
        <time>2009-02-20T01:02:54Z</time>
      </trkpt>
      <trkpt lat="50.652257" lon="6.423042">
        <ele>378.416000</ele>
        <time>2009-02-20T01:03:28Z</time>
      </trkpt>
      <trkpt lat="50.652222" lon="6.422911">
        <ele>379.858000</ele>
        <time>2009-02-20T01:03:36Z</time>
      </trkpt>
      <trkpt lat="50.652247" lon="6.422694">
        <ele>383.223000</ele>
        <time>2009-02-20T01:03:48Z</time>
      </trkpt>
      <trkpt lat="50.652313" lon="6.422489">
        <ele>386.587000</ele>
        <time>2009-02-20T01:04:01Z</time>
      </trkpt>
      <trkpt lat="50.652385" lon="6.422133">
        <ele>389.952000</ele>
        <time>2009-02-20T01:04:21Z</time>
      </trkpt>
      <trkpt lat="50.652483" lon="6.421914">
        <ele>394.278000</ele>
        <time>2009-02-20T01:04:36Z</time>
      </trkpt>
      <trkpt lat="50.652521" lon="6.421771">
        <ele>397.642000</ele>
        <time>2009-02-20T01:04:45Z</time>
      </trkpt>
      <trkpt lat="50.652626" lon="6.421392">
        <ele>402.449000</ele>
        <time>2009-02-20T01:05:08Z</time>
      </trkpt>
      <trkpt lat="50.652821" lon="6.421264">
        <ele>407.256000</ele>
        <time>2009-02-20T01:05:26Z</time>
      </trkpt>
      <trkpt lat="50.652994" lon="6.421611">
        <ele>414.946000</ele>
        <time>2009-02-20T01:05:50Z</time>
      </trkpt>
      <trkpt lat="50.652903" lon="6.422075">
        <ele>418.792000</ele>
        <time>2009-02-20T01:06:17Z</time>
      </trkpt>
      <trkpt lat="50.652920" lon="6.422276">
        <ele>420.233000</ele>
        <time>2009-02-20T01:06:29Z</time>
      </trkpt>
      <trkpt lat="50.653196" lon="6.422318">
        <ele>424.079000</ele>
        <time>2009-02-20T01:06:53Z</time>
      </trkpt>
      <trkpt lat="50.653507" lon="6.421547">
        <ele>425.521000</ele>
        <time>2009-02-20T01:07:43Z</time>
      </trkpt>
      <trkpt lat="50.653943" lon="6.420604">
        <ele>425.040000</ele>
        <time>2009-02-20T01:08:48Z</time>
      </trkpt>
      <trkpt lat="50.654620" lon="6.420395">
        <ele>426.963000</ele>
        <time>2009-02-20T01:09:48Z</time>
      </trkpt>
      <trkpt lat="50.654772" lon="6.418832">
        <ele>427.924000</ele>
        <time>2009-02-20T01:11:15Z</time>
      </trkpt>
      <trkpt lat="50.654870" lon="6.416466">
        <ele>431.769000</ele>
        <time>2009-02-20T01:13:26Z</time>
      </trkpt>
      <trkpt lat="50.655123" lon="6.415229">
        <ele>433.692000</ele>
        <time>2009-02-20T01:14:38Z</time>
      </trkpt>
      <trkpt lat="50.655542" lon="6.413780">
        <ele>435.615000</ele>
        <time>2009-02-20T01:16:06Z</time>
      </trkpt>
      <trkpt lat="50.656044" lon="6.413328">
        <ele>439.460000</ele>
        <time>2009-02-20T01:16:57Z</time>
      </trkpt>
    </trkseg>
  </trk>

</gpx>
